sensor_id;sensor_type;location;lat;lon;timestamp;P1;durP1;ratioP1;P2;durP2;ratioP2
43706;SDS011;61348;53.392;-6.248;2023-03-13T00:01:40;2.05;;;0.50;;
43706;SDS011;61348;53.392;-6.248;2023-03-13T00:04:08;2.05;;;0.57;;
43706;SDS011;61348;53.392;-6.248;2023-03-13T00:06:35;0.63;;;0.30;;
43706;SDS011;61348;53.392;-6.248;2023-03-13T00:09:05;0.52;;;0.22;;
43706;SDS011;61348;53.392;-6.248;2023-03-13T00:11:34;0.40;;;0.40;;
43706;SDS011;61348;53.392;-6.248;2023-03-13T00:14:02;1.02;;;0.45;;
43706;SDS011;61348;53.392;-6.248;2023-03-13T00:16:30;1.75;;;0.30;;
43706;SDS011;61348;53.392;-6.248;2023-03-13T00:18:59;1.60;;;0.20;;
43706;SDS011;61348;53.392;-6.248;2023-03-13T00:21:27;0.50;;;0.30;;
43706;SDS011;61348;53.392;-6.248;2023-03-13T00:23:54;0.98;;;0.17;;
43706;SDS011;61348;53.392;-6.248;2023-03-13T00:26:22;2.25;;;0.20;;
43706;SDS011;61348;53.392;-6.248;2023-03-13T00:28:50;2.22;;;0.20;;
43706;SDS011;61348;53.392;-6.248;2023-03-13T00:31:19;0.20;;;0.10;;
43706;SDS011;61348;53.392;-6.248;2023-03-13T00:33:48;0.63;;;0.20;;
43706;SDS011;61348;53.392;-6.248;2023-03-13T00:36:19;0.47;;;0.10;;
43706;SDS011;61348;53.392;-6.248;2023-03-13T00:38:51;1.73;;;0.10;;
43706;SDS011;61348;53.392;-6.248;2023-03-13T00:41:20;0.10;;;0.10;;
43706;SDS011;61348;53.392;-6.248;2023-03-13T00:43:48;1.65;;;0.13;;
43706;SDS011;61348;53.392;-6.248;2023-03-13T00:46:16;0.38;;;0.10;;
43706;SDS011;61348;53.392;-6.248;2023-03-13T00:48:44;0.15;;;0.00;;
43706;SDS011;61348;53.392;-6.248;2023-03-13T00:51:12;0.00;;;0.00;;
43706;SDS011;61348;53.392;-6.248;2023-03-13T00:53:40;0.10;;;0.10;;
43706;SDS011;61348;53.392;-6.248;2023-03-13T00:56:09;0.13;;;0.10;;
43706;SDS011;61348;53.392;-6.248;2023-03-13T00:58:38;0.32;;;0.10;;
43706;SDS011;61348;53.392;-6.248;2023-03-13T01:03:34;0.00;;;0.00;;
43706;SDS011;61348;53.392;-6.248;2023-03-13T01:06:03;0.08;;;0.00;;
43706;SDS011;61348;53.392;-6.248;2023-03-13T01:08:32;0.75;;;0.10;;
43706;SDS011;61348;53.392;-6.248;2023-03-13T01:11:03;0.17;;;0.10;;
43706;SDS011;61348;53.392;-6.248;2023-03-13T01:13:35;0.52;;;0.20;;
43706;SDS011;61348;53.392;-6.248;2023-03-13T01:18:30;0.00;;;0.00;;
43706;SDS011;61348;53.392;-6.248;2023-03-13T01:20:56;0.20;;;0.10;;
43706;SDS011;61348;53.392;-6.248;2023-03-13T01:23:23;0.10;;;0.00;;
43706;SDS011;61348;53.392;-6.248;2023-03-13T01:25:50;1.60;;;0.20;;
43706;SDS011;61348;53.392;-6.248;2023-03-13T01:28:17;1.13;;;0.00;;
43706;SDS011;61348;53.392;-6.248;2023-03-13T01:30:46;0.10;;;0.10;;
43706;SDS011;61348;53.392;-6.248;2023-03-13T01:33:13;1.15;;;0.10;;
43706;SDS011;61348;53.392;-6.248;2023-03-13T01:35:40;1.13;;;0.10;;
43706;SDS011;61348;53.392;-6.248;2023-03-13T01:38:07;0.57;;;0.30;;
43706;SDS011;61348;53.392;-6.248;2023-03-13T01:40:38;1.08;;;0.20;;
43706;SDS011;61348;53.392;-6.248;2023-03-13T01:43:17;0.40;;;0.10;;
43706;SDS011;61348;53.392;-6.248;2023-03-13T01:46:00;0.52;;;0.10;;
43706;SDS011;61348;53.392;-6.248;2023-03-13T01:51:09;0.22;;;0.10;;
43706;SDS011;61348;53.392;-6.248;2023-03-13T01:53:43;0.30;;;0.20;;
43706;SDS011;61348;53.392;-6.248;2023-03-13T01:56:14;0.10;;;0.10;;
43706;SDS011;61348;53.392;-6.248;2023-03-13T01:58:44;1.17;;;0.30;;
43706;SDS011;61348;53.392;-6.248;2023-03-13T02:01:13;0.15;;;0.13;;
43706;SDS011;61348;53.392;-6.248;2023-03-13T02:03:40;0.55;;;0.10;;
43706;SDS011;61348;53.392;-6.248;2023-03-13T02:06:08;0.98;;;0.20;;
43706;SDS011;61348;53.392;-6.248;2023-03-13T02:08:37;0.47;;;0.40;;
43706;SDS011;61348;53.392;-6.248;2023-03-13T02:11:56;1.27;;;0.40;;
43706;SDS011;61348;53.392;-6.248;2023-03-13T02:14:06;0.50;;;0.35;;
43706;SDS011;61348;53.392;-6.248;2023-03-13T02:16:33;0.88;;;0.30;;
43706;SDS011;61348;53.392;-6.248;2023-03-13T02:19:01;0.40;;;0.20;;
43706;SDS011;61348;53.392;-6.248;2023-03-13T02:22:13;2.63;;;0.90;;
43706;SDS011;61348;53.392;-6.248;2023-03-13T02:27:46;2.17;;;0.60;;
43706;SDS011;61348;53.392;-6.248;2023-03-13T02:30:13;2.95;;;0.40;;
43706;SDS011;61348;53.392;-6.248;2023-03-13T02:32:41;4.45;;;0.60;;
43706;SDS011;61348;53.392;-6.248;2023-03-13T02:35:10;1.55;;;0.40;;
43706;SDS011;61348;53.392;-6.248;2023-03-13T02:37:43;3.90;;;1.77;;
43706;SDS011;61348;53.392;-6.248;2023-03-13T02:40:42;3.90;;;1.17;;
43706;SDS011;61348;53.392;-6.248;2023-03-13T02:43:15;1.75;;;0.85;;
43706;SDS011;61348;53.392;-6.248;2023-03-13T02:48:33;7.28;;;1.77;;
43706;SDS011;61348;53.392;-6.248;2023-03-13T02:51:11;8.40;;;1.08;;
43706;SDS011;61348;53.392;-6.248;2023-03-13T02:53:57;4.50;;;1.10;;
43706;SDS011;61348;53.392;-6.248;2023-03-13T02:56:32;7.35;;;1.85;;
43706;SDS011;61348;53.392;-6.248;2023-03-13T02:59:01;8.05;;;1.30;;
43706;SDS011;61348;53.392;-6.248;2023-03-13T03:01:28;7.47;;;1.45;;
43706;SDS011;61348;53.392;-6.248;2023-03-13T03:03:55;9.02;;;1.50;;
43706;SDS011;61348;53.392;-6.248;2023-03-13T03:06:21;11.38;;;2.08;;
43706;SDS011;61348;53.392;-6.248;2023-03-13T03:08:48;11.10;;;1.80;;
43706;SDS011;61348;53.392;-6.248;2023-03-13T03:11:15;9.75;;;2.22;;
43706;SDS011;61348;53.392;-6.248;2023-03-13T03:13:41;9.48;;;3.17;;
43706;SDS011;61348;53.392;-6.248;2023-03-13T03:16:09;11.57;;;2.38;;
43706;SDS011;61348;53.392;-6.248;2023-03-13T03:18:37;12.23;;;2.10;;
43706;SDS011;61348;53.392;-6.248;2023-03-13T03:21:04;15.00;;;2.20;;
43706;SDS011;61348;53.392;-6.248;2023-03-13T03:23:32;16.48;;;2.83;;
43706;SDS011;61348;53.392;-6.248;2023-03-13T03:26:00;10.15;;;1.60;;
43706;SDS011;61348;53.392;-6.248;2023-03-13T03:28:28;13.48;;;3.33;;
43706;SDS011;61348;53.392;-6.248;2023-03-13T03:30:55;9.80;;;2.00;;
43706;SDS011;61348;53.392;-6.248;2023-03-13T03:33:22;17.83;;;3.88;;
43706;SDS011;61348;53.392;-6.248;2023-03-13T03:35:49;11.13;;;3.08;;
43706;SDS011;61348;53.392;-6.248;2023-03-13T03:38:16;8.18;;;2.38;;
43706;SDS011;61348;53.392;-6.248;2023-03-13T03:40:43;11.85;;;1.50;;
43706;SDS011;61348;53.392;-6.248;2023-03-13T03:43:09;6.78;;;1.88;;
43706;SDS011;61348;53.392;-6.248;2023-03-13T03:45:36;2.03;;;0.80;;
43706;SDS011;61348;53.392;-6.248;2023-03-13T03:48:03;4.97;;;0.80;;
43706;SDS011;61348;53.392;-6.248;2023-03-13T03:50:29;1.67;;;0.38;;
43706;SDS011;61348;53.392;-6.248;2023-03-13T03:52:56;2.20;;;0.30;;
43706;SDS011;61348;53.392;-6.248;2023-03-13T03:55:23;3.45;;;1.10;;
43706;SDS011;61348;53.392;-6.248;2023-03-13T03:57:49;1.30;;;0.30;;
43706;SDS011;61348;53.392;-6.248;2023-03-13T04:00:16;1.23;;;0.30;;
43706;SDS011;61348;53.392;-6.248;2023-03-13T04:02:44;2.78;;;0.22;;
43706;SDS011;61348;53.392;-6.248;2023-03-13T04:05:11;1.88;;;0.38;;
43706;SDS011;61348;53.392;-6.248;2023-03-13T04:07:38;2.22;;;0.50;;
43706;SDS011;61348;53.392;-6.248;2023-03-13T04:10:05;0.90;;;0.30;;
43706;SDS011;61348;53.392;-6.248;2023-03-13T04:12:32;0.98;;;0.28;;
43706;SDS011;61348;53.392;-6.248;2023-03-13T04:14:58;4.32;;;0.73;;
43706;SDS011;61348;53.392;-6.248;2023-03-13T04:17:25;0.50;;;0.20;;
43706;SDS011;61348;53.392;-6.248;2023-03-13T04:19:52;1.95;;;0.25;;
43706;SDS011;61348;53.392;-6.248;2023-03-13T04:22:19;2.88;;;0.73;;
43706;SDS011;61348;53.392;-6.248;2023-03-13T04:24:46;0.70;;;0.10;;
43706;SDS011;61348;53.392;-6.248;2023-03-13T04:27:12;0.68;;;0.20;;
43706;SDS011;61348;53.392;-6.248;2023-03-13T04:29:39;0.60;;;0.10;;
43706;SDS011;61348;53.392;-6.248;2023-03-13T04:32:05;0.52;;;0.15;;
43706;SDS011;61348;53.392;-6.248;2023-03-13T04:34:32;0.35;;;0.10;;
43706;SDS011;61348;53.392;-6.248;2023-03-13T04:36:59;0.35;;;0.10;;
43706;SDS011;61348;53.392;-6.248;2023-03-13T04:39:26;1.13;;;0.10;;
43706;SDS011;61348;53.392;-6.248;2023-03-13T04:41:53;1.30;;;0.22;;
43706;SDS011;61348;53.392;-6.248;2023-03-13T04:44:21;0.05;;;0.05;;
43706;SDS011;61348;53.392;-6.248;2023-03-13T04:46:48;0.10;;;0.10;;
43706;SDS011;61348;53.392;-6.248;2023-03-13T04:49:15;2.85;;;0.20;;
43706;SDS011;61348;53.392;-6.248;2023-03-13T04:51:42;0.20;;;0.10;;
43706;SDS011;61348;53.392;-6.248;2023-03-13T04:54:10;0.10;;;0.10;;
43706;SDS011;61348;53.392;-6.248;2023-03-13T04:56:37;1.48;;;0.10;;
43706;SDS011;61348;53.392;-6.248;2023-03-13T04:59:12;2.08;;;0.75;;
43706;SDS011;61348;53.392;-6.248;2023-03-13T05:01:40;0.10;;;0.10;;
43706;SDS011;61348;53.392;-6.248;2023-03-13T05:04:08;0.43;;;0.20;;
43706;SDS011;61348;53.392;-6.248;2023-03-13T05:06:35;1.10;;;0.20;;
43706;SDS011;61348;53.392;-6.248;2023-03-13T05:09:02;0.82;;;0.10;;
43706;SDS011;61348;53.392;-6.248;2023-03-13T05:11:29;0.98;;;0.10;;
43706;SDS011;61348;53.392;-6.248;2023-03-13T05:13:56;0.00;;;0.00;;
43706;SDS011;61348;53.392;-6.248;2023-03-13T05:16:22;0.20;;;0.00;;
43706;SDS011;61348;53.392;-6.248;2023-03-13T05:18:49;0.15;;;0.08;;
43706;SDS011;61348;53.392;-6.248;2023-03-13T05:21:16;1.48;;;0.15;;
43706;SDS011;61348;53.392;-6.248;2023-03-13T05:23:42;1.65;;;0.45;;
43706;SDS011;61348;53.392;-6.248;2023-03-13T05:26:09;2.17;;;0.10;;
43706;SDS011;61348;53.392;-6.248;2023-03-13T05:28:36;0.45;;;0.28;;
43706;SDS011;61348;53.392;-6.248;2023-03-13T05:31:03;0.30;;;0.20;;
43706;SDS011;61348;53.392;-6.248;2023-03-13T05:33:29;0.88;;;0.13;;
43706;SDS011;61348;53.392;-6.248;2023-03-13T05:35:56;1.23;;;0.10;;
43706;SDS011;61348;53.392;-6.248;2023-03-13T05:38:23;0.10;;;0.10;;
43706;SDS011;61348;53.392;-6.248;2023-03-13T05:40:49;1.13;;;0.15;;
43706;SDS011;61348;53.392;-6.248;2023-03-13T05:43:16;2.25;;;0.30;;
43706;SDS011;61348;53.392;-6.248;2023-03-13T05:45:43;0.20;;;0.10;;
43706;SDS011;61348;53.392;-6.248;2023-03-13T05:48:09;2.85;;;0.20;;
43706;SDS011;61348;53.392;-6.248;2023-03-13T05:50:36;0.30;;;0.10;;
43706;SDS011;61348;53.392;-6.248;2023-03-13T05:53:03;1.13;;;0.13;;
43706;SDS011;61348;53.392;-6.248;2023-03-13T05:55:29;0.25;;;0.00;;
43706;SDS011;61348;53.392;-6.248;2023-03-13T05:57:56;0.10;;;0.05;;
43706;SDS011;61348;53.392;-6.248;2023-03-13T06:00:23;0.70;;;0.10;;
43706;SDS011;61348;53.392;-6.248;2023-03-13T06:02:49;1.30;;;0.10;;
43706;SDS011;61348;53.392;-6.248;2023-03-13T06:05:16;0.30;;;0.10;;
43706;SDS011;61348;53.392;-6.248;2023-03-13T06:07:43;0.03;;;0.00;;
43706;SDS011;61348;53.392;-6.248;2023-03-13T06:10:10;1.05;;;0.20;;
43706;SDS011;61348;53.392;-6.248;2023-03-13T06:12:37;0.10;;;0.03;;
43706;SDS011;61348;53.392;-6.248;2023-03-13T06:15:04;0.73;;;0.15;;
43706;SDS011;61348;53.392;-6.248;2023-03-13T06:17:33;3.03;;;0.25;;
43706;SDS011;61348;53.392;-6.248;2023-03-13T06:20:02;1.55;;;0.30;;
43706;SDS011;61348;53.392;-6.248;2023-03-13T06:22:30;0.50;;;0.30;;
43706;SDS011;61348;53.392;-6.248;2023-03-13T06:24:57;0.10;;;0.10;;
43706;SDS011;61348;53.392;-6.248;2023-03-13T06:27:24;1.33;;;0.52;;
43706;SDS011;61348;53.392;-6.248;2023-03-13T06:29:50;2.63;;;0.30;;
43706;SDS011;61348;53.392;-6.248;2023-03-13T06:32:17;1.17;;;0.28;;
43706;SDS011;61348;53.392;-6.248;2023-03-13T06:34:44;2.72;;;0.40;;
43706;SDS011;61348;53.392;-6.248;2023-03-13T06:37:10;2.92;;;0.40;;
43706;SDS011;61348;53.392;-6.248;2023-03-13T06:39:37;1.15;;;0.60;;
43706;SDS011;61348;53.392;-6.248;2023-03-13T06:42:04;1.58;;;0.50;;
43706;SDS011;61348;53.392;-6.248;2023-03-13T06:44:31;7.93;;;1.30;;
43706;SDS011;61348;53.392;-6.248;2023-03-13T06:46:58;1.35;;;0.88;;
43706;SDS011;61348;53.392;-6.248;2023-03-13T06:49:24;6.82;;;1.15;;
43706;SDS011;61348;53.392;-6.248;2023-03-13T06:51:51;6.53;;;1.10;;
43706;SDS011;61348;53.392;-6.248;2023-03-13T06:54:17;8.90;;;0.85;;
43706;SDS011;61348;53.392;-6.248;2023-03-13T06:56:44;5.45;;;1.20;;
43706;SDS011;61348;53.392;-6.248;2023-03-13T06:59:11;6.60;;;1.25;;
43706;SDS011;61348;53.392;-6.248;2023-03-13T07:01:37;4.53;;;1.10;;
43706;SDS011;61348;53.392;-6.248;2023-03-13T07:04:04;8.82;;;1.80;;
43706;SDS011;61348;53.392;-6.248;2023-03-13T07:06:31;4.47;;;1.77;;
43706;SDS011;61348;53.392;-6.248;2023-03-13T07:08:58;6.57;;;1.55;;
43706;SDS011;61348;53.392;-6.248;2023-03-13T07:11:24;3.25;;;0.82;;
43706;SDS011;61348;53.392;-6.248;2023-03-13T07:13:53;10.88;;;3.58;;
43706;SDS011;61348;53.392;-6.248;2023-03-13T07:16:40;6.90;;;1.65;;
43706;SDS011;61348;53.392;-6.248;2023-03-13T07:19:07;4.22;;;1.00;;
43706;SDS011;61348;53.392;-6.248;2023-03-13T07:21:33;2.60;;;1.15;;
43706;SDS011;61348;53.392;-6.248;2023-03-13T07:24:00;4.28;;;0.93;;
43706;SDS011;61348;53.392;-6.248;2023-03-13T07:26:27;6.10;;;0.98;;
43706;SDS011;61348;53.392;-6.248;2023-03-13T07:28:54;6.10;;;2.17;;
43706;SDS011;61348;53.392;-6.248;2023-03-13T07:31:21;2.53;;;0.98;;
43706;SDS011;61348;53.392;-6.248;2023-03-13T07:33:52;4.70;;;0.80;;
43706;SDS011;61348;53.392;-6.248;2023-03-13T07:36:22;6.72;;;3.03;;
43706;SDS011;61348;53.392;-6.248;2023-03-13T07:38:49;3.78;;;1.98;;
43706;SDS011;61348;53.392;-6.248;2023-03-13T07:41:16;4.72;;;1.13;;
43706;SDS011;61348;53.392;-6.248;2023-03-13T07:43:45;4.13;;;0.68;;
43706;SDS011;61348;53.392;-6.248;2023-03-13T07:46:13;4.93;;;0.93;;
43706;SDS011;61348;53.392;-6.248;2023-03-13T07:48:41;4.32;;;1.17;;
43706;SDS011;61348;53.392;-6.248;2023-03-13T07:51:12;3.47;;;1.85;;
43706;SDS011;61348;53.392;-6.248;2023-03-13T07:53:44;6.80;;;2.75;;
43706;SDS011;61348;53.392;-6.248;2023-03-13T07:56:15;2.75;;;0.63;;
43706;SDS011;61348;53.392;-6.248;2023-03-13T07:58:44;5.32;;;0.80;;
43706;SDS011;61348;53.392;-6.248;2023-03-13T08:01:21;6.05;;;1.15;;
43706;SDS011;61348;53.392;-6.248;2023-03-13T08:03:55;4.93;;;1.23;;
43706;SDS011;61348;53.392;-6.248;2023-03-13T08:06:24;6.60;;;1.48;;
43706;SDS011;61348;53.392;-6.248;2023-03-13T08:08:52;8.30;;;2.15;;
43706;SDS011;61348;53.392;-6.248;2023-03-13T08:11:23;6.50;;;1.10;;
43706;SDS011;61348;53.392;-6.248;2023-03-13T08:13:52;8.20;;;1.50;;
43706;SDS011;61348;53.392;-6.248;2023-03-13T08:16:20;11.95;;;4.25;;
43706;SDS011;61348;53.392;-6.248;2023-03-13T08:18:52;10.52;;;2.25;;
43706;SDS011;61348;53.392;-6.248;2023-03-13T08:21:25;17.25;;;3.33;;
43706;SDS011;61348;53.392;-6.248;2023-03-13T08:23:57;14.20;;;2.83;;
43706;SDS011;61348;53.392;-6.248;2023-03-13T08:26:27;20.13;;;4.05;;
43706;SDS011;61348;53.392;-6.248;2023-03-13T08:28:56;10.63;;;3.50;;
43706;SDS011;61348;53.392;-6.248;2023-03-13T08:31:25;22.50;;;5.28;;
43706;SDS011;61348;53.392;-6.248;2023-03-13T08:33:54;19.02;;;3.28;;
43706;SDS011;61348;53.392;-6.248;2023-03-13T08:36:25;22.70;;;3.35;;
43706;SDS011;61348;53.392;-6.248;2023-03-13T08:41:22;28.13;;;3.95;;
43706;SDS011;61348;53.392;-6.248;2023-03-13T08:43:51;22.60;;;4.80;;
43706;SDS011;61348;53.392;-6.248;2023-03-13T08:46:18;19.30;;;3.90;;
43706;SDS011;61348;53.392;-6.248;2023-03-13T08:48:49;26.23;;;6.25;;
43706;SDS011;61348;53.392;-6.248;2023-03-13T08:51:17;15.93;;;3.53;;
43706;SDS011;61348;53.392;-6.248;2023-03-13T08:53:44;12.02;;;3.47;;
43706;SDS011;61348;53.392;-6.248;2023-03-13T08:56:12;22.38;;;3.80;;
43706;SDS011;61348;53.392;-6.248;2023-03-13T08:58:41;13.43;;;4.35;;
43706;SDS011;61348;53.392;-6.248;2023-03-13T09:01:12;19.75;;;3.50;;
43706;SDS011;61348;53.392;-6.248;2023-03-13T09:06:07;17.65;;;2.95;;
43706;SDS011;61348;53.392;-6.248;2023-03-13T09:08:34;18.60;;;4.05;;
43706;SDS011;61348;53.392;-6.248;2023-03-13T09:13:31;21.75;;;3.42;;
43706;SDS011;61348;53.392;-6.248;2023-03-13T09:16:09;14.95;;;3.25;;
43706;SDS011;61348;53.392;-6.248;2023-03-13T09:18:38;15.38;;;4.30;;
43706;SDS011;61348;53.392;-6.248;2023-03-13T09:21:09;9.57;;;2.53;;
43706;SDS011;61348;53.392;-6.248;2023-03-13T09:23:39;14.38;;;2.90;;
43706;SDS011;61348;53.392;-6.248;2023-03-13T09:26:06;9.15;;;2.45;;
43706;SDS011;61348;53.392;-6.248;2023-03-13T09:28:33;13.10;;;2.70;;
43706;SDS011;61348;53.392;-6.248;2023-03-13T09:31:07;20.20;;;2.80;;
43706;SDS011;61348;53.392;-6.248;2023-03-13T09:33:39;13.63;;;2.92;;
43706;SDS011;61348;53.392;-6.248;2023-03-13T09:36:06;12.68;;;2.33;;
43706;SDS011;61348;53.392;-6.248;2023-03-13T09:38:34;12.35;;;2.25;;
43706;SDS011;61348;53.392;-6.248;2023-03-13T09:41:04;10.98;;;2.72;;
43706;SDS011;61348;53.392;-6.248;2023-03-13T09:43:42;11.43;;;2.20;;
43706;SDS011;61348;53.392;-6.248;2023-03-13T09:46:14;13.70;;;3.58;;
43706;SDS011;61348;53.392;-6.248;2023-03-13T09:48:44;5.97;;;1.70;;
43706;SDS011;61348;53.392;-6.248;2023-03-13T09:51:16;7.95;;;1.92;;
43706;SDS011;61348;53.392;-6.248;2023-03-13T09:56:39;7.90;;;1.73;;
43706;SDS011;61348;53.392;-6.248;2023-03-13T09:59:12;6.15;;;1.33;;
43706;SDS011;61348;53.392;-6.248;2023-03-13T10:01:47;9.23;;;1.90;;
43706;SDS011;61348;53.392;-6.248;2023-03-13T10:06:46;6.18;;;1.20;;
43706;SDS011;61348;53.392;-6.248;2023-03-13T10:09:17;7.55;;;2.63;;
43706;SDS011;61348;53.392;-6.248;2023-03-13T10:14:41;2.17;;;1.13;;
43706;SDS011;61348;53.392;-6.248;2023-03-13T10:19:45;5.78;;;1.65;;
43706;SDS011;61348;53.392;-6.248;2023-03-13T10:22:18;7.38;;;0.95;;
43706;SDS011;61348;53.392;-6.248;2023-03-13T10:27:21;3.72;;;1.25;;
43706;SDS011;61348;53.392;-6.248;2023-03-13T10:29:49;2.17;;;0.55;;
43706;SDS011;61348;53.392;-6.248;2023-03-13T10:32:16;2.90;;;0.65;;
43706;SDS011;61348;53.392;-6.248;2023-03-13T10:35:00;0.65;;;0.30;;
43706;SDS011;61348;53.392;-6.248;2023-03-13T10:37:29;2.95;;;0.52;;
43706;SDS011;61348;53.392;-6.248;2023-03-13T10:42:52;3.25;;;0.55;;
43706;SDS011;61348;53.392;-6.248;2023-03-13T10:45:25;3.30;;;0.43;;
43706;SDS011;61348;53.392;-6.248;2023-03-13T10:47:53;1.08;;;0.30;;
43706;SDS011;61348;53.392;-6.248;2023-03-13T10:50:22;1.65;;;0.47;;
43706;SDS011;61348;53.392;-6.248;2023-03-13T10:52:50;2.25;;;0.57;;
43706;SDS011;61348;53.392;-6.248;2023-03-13T10:55:19;1.02;;;0.40;;
43706;SDS011;61348;53.392;-6.248;2023-03-13T10:58:05;4.03;;;0.60;;
43706;SDS011;61348;53.392;-6.248;2023-03-13T11:00:34;1.58;;;0.30;;
43706;SDS011;61348;53.392;-6.248;2023-03-13T11:03:06;1.50;;;0.38;;
43706;SDS011;61348;53.392;-6.248;2023-03-13T11:05:43;0.88;;;0.30;;
43706;SDS011;61348;53.392;-6.248;2023-03-13T11:08:20;2.10;;;0.47;;
43706;SDS011;61348;53.392;-6.248;2023-03-13T11:10:54;2.20;;;0.20;;
43706;SDS011;61348;53.392;-6.248;2023-03-13T11:13:30;1.98;;;0.30;;
43706;SDS011;61348;53.392;-6.248;2023-03-13T11:18:36;0.20;;;0.20;;
43706;SDS011;61348;53.392;-6.248;2023-03-13T11:21:10;0.52;;;0.20;;
43706;SDS011;61348;53.392;-6.248;2023-03-13T11:23:46;1.08;;;0.40;;
43706;SDS011;61348;53.392;-6.248;2023-03-13T11:26:36;0.32;;;0.25;;
43706;SDS011;61348;53.392;-6.248;2023-03-13T11:32:22;0.57;;;0.50;;
43706;SDS011;61348;53.392;-6.248;2023-03-13T11:34:57;0.55;;;0.20;;
43706;SDS011;61348;53.392;-6.248;2023-03-13T11:37:27;2.25;;;0.22;;
43706;SDS011;61348;53.392;-6.248;2023-03-13T11:40:01;0.30;;;0.25;;
43706;SDS011;61348;53.392;-6.248;2023-03-13T11:59:12;0.85;;;0.40;;
43706;SDS011;61348;53.392;-6.248;2023-03-13T12:07:24;4.07;;;1.13;;
43706;SDS011;61348;53.392;-6.248;2023-03-13T12:10:03;1.13;;;0.40;;
43706;SDS011;61348;53.392;-6.248;2023-03-13T12:23:13;0.77;;;0.20;;
43706;SDS011;61348;53.392;-6.248;2023-03-13T12:30:39;1.33;;;0.70;;
43706;SDS011;61348;53.392;-6.248;2023-03-13T12:33:25;3.97;;;0.50;;
43706;SDS011;61348;53.392;-6.248;2023-03-13T12:36:03;2.90;;;0.60;;
43706;SDS011;61348;53.392;-6.248;2023-03-13T12:38:38;1.90;;;0.35;;
43706;SDS011;61348;53.392;-6.248;2023-03-13T12:43:49;1.50;;;0.80;;
43706;SDS011;61348;53.392;-6.248;2023-03-13T12:51:41;21.48;;;2.55;;
43706;SDS011;61348;53.392;-6.248;2023-03-13T12:59:42;2.07;;;0.60;;
43706;SDS011;61348;53.392;-6.248;2023-03-13T13:02:20;3.42;;;0.60;;
43706;SDS011;61348;53.392;-6.248;2023-03-13T13:04:50;3.08;;;0.98;;
43706;SDS011;61348;53.392;-6.248;2023-03-13T13:12:36;13.68;;;2.97;;
43706;SDS011;61348;53.392;-6.248;2023-03-13T13:18:03;5.45;;;1.00;;
43706;SDS011;61348;53.392;-6.248;2023-03-13T13:23:31;4.53;;;1.80;;
43706;SDS011;61348;53.392;-6.248;2023-03-13T13:37:29;5.55;;;1.20;;
43706;SDS011;61348;53.392;-6.248;2023-03-13T13:39:49;5.88;;;1.88;;
43706;SDS011;61348;53.392;-6.248;2023-03-13T13:47:48;2.90;;;0.82;;
43706;SDS011;61348;53.392;-6.248;2023-03-13T13:55:58;5.30;;;1.63;;
43706;SDS011;61348;53.392;-6.248;2023-03-13T13:58:29;5.22;;;2.33;;
43706;SDS011;61348;53.392;-6.248;2023-03-13T14:00:59;3.35;;;1.80;;
43706;SDS011;61348;53.392;-6.248;2023-03-13T14:03:32;4.78;;;1.65;;
43706;SDS011;61348;53.392;-6.248;2023-03-13T14:06:02;5.35;;;1.20;;
43706;SDS011;61348;53.392;-6.248;2023-03-13T14:08:38;3.33;;;1.63;;
43706;SDS011;61348;53.392;-6.248;2023-03-13T14:16:53;3.72;;;1.67;;
43706;SDS011;61348;53.392;-6.248;2023-03-13T14:19:26;4.53;;;3.25;;
43706;SDS011;61348;53.392;-6.248;2023-03-13T14:21:57;4.15;;;1.90;;
43706;SDS011;61348;53.392;-6.248;2023-03-13T14:24:25;1.10;;;0.90;;
43706;SDS011;61348;53.392;-6.248;2023-03-13T14:26:52;0.52;;;0.32;;
43706;SDS011;61348;53.392;-6.248;2023-03-13T14:29:19;1.38;;;0.65;;
43706;SDS011;61348;53.392;-6.248;2023-03-13T14:31:54;1.33;;;0.70;;
43706;SDS011;61348;53.392;-6.248;2023-03-13T14:34:22;2.60;;;0.80;;
43706;SDS011;61348;53.392;-6.248;2023-03-13T14:36:54;1.40;;;0.82;;
43706;SDS011;61348;53.392;-6.248;2023-03-13T14:39:42;1.67;;;0.63;;
43706;SDS011;61348;53.392;-6.248;2023-03-13T14:42:11;0.90;;;0.90;;
43706;SDS011;61348;53.392;-6.248;2023-03-13T14:44:39;1.08;;;0.82;;
43706;SDS011;61348;53.392;-6.248;2023-03-13T14:49:43;1.20;;;1.10;;
43706;SDS011;61348;53.392;-6.248;2023-03-13T14:52:19;1.73;;;1.40;;
43706;SDS011;61348;53.392;-6.248;2023-03-13T14:57:19;2.08;;;1.50;;
43706;SDS011;61348;53.392;-6.248;2023-03-13T14:59:51;1.95;;;1.30;;
43706;SDS011;61348;53.392;-6.248;2023-03-13T15:05:04;2.03;;;1.83;;
43706;SDS011;61348;53.392;-6.248;2023-03-13T15:07:39;1.83;;;1.25;;
43706;SDS011;61348;53.392;-6.248;2023-03-13T15:10:22;2.78;;;1.10;;
43706;SDS011;61348;53.392;-6.248;2023-03-13T15:12:56;1.50;;;1.40;;
43706;SDS011;61348;53.392;-6.248;2023-03-13T15:15:23;2.08;;;1.17;;
43706;SDS011;61348;53.392;-6.248;2023-03-13T15:17:50;1.25;;;1.05;;
43706;SDS011;61348;53.392;-6.248;2023-03-13T15:20:17;2.45;;;1.05;;
43706;SDS011;61348;53.392;-6.248;2023-03-13T15:22:44;2.10;;;1.00;;
43706;SDS011;61348;53.392;-6.248;2023-03-13T15:25:15;16.98;;;5.70;;
43706;SDS011;61348;53.392;-6.248;2023-03-13T15:27:47;4.35;;;2.10;;
43706;SDS011;61348;53.392;-6.248;2023-03-13T15:30:19;3.55;;;2.35;;
43706;SDS011;61348;53.392;-6.248;2023-03-13T15:32:50;3.55;;;2.00;;
43706;SDS011;61348;53.392;-6.248;2023-03-13T15:35:27;1.88;;;1.30;;
43706;SDS011;61348;53.392;-6.248;2023-03-13T15:37:56;3.53;;;2.00;;
43706;SDS011;61348;53.392;-6.248;2023-03-13T15:40:24;4.93;;;3.22;;
43706;SDS011;61348;53.392;-6.248;2023-03-13T15:42:52;2.67;;;1.85;;
43706;SDS011;61348;53.392;-6.248;2023-03-13T15:45:20;4.93;;;2.42;;
43706;SDS011;61348;53.392;-6.248;2023-03-13T15:47:46;6.20;;;1.00;;
43706;SDS011;61348;53.392;-6.248;2023-03-13T15:50:16;0.93;;;0.90;;
43706;SDS011;61348;53.392;-6.248;2023-03-13T15:52:44;4.80;;;2.47;;
43706;SDS011;61348;53.392;-6.248;2023-03-13T15:55:11;1.77;;;1.25;;
43706;SDS011;61348;53.392;-6.248;2023-03-13T15:57:45;2.58;;;1.55;;
43706;SDS011;61348;53.392;-6.248;2023-03-13T16:00:17;7.30;;;2.05;;
43706;SDS011;61348;53.392;-6.248;2023-03-13T16:02:48;1.67;;;1.00;;
43706;SDS011;61348;53.392;-6.248;2023-03-13T16:05:16;4.03;;;1.30;;
43706;SDS011;61348;53.392;-6.248;2023-03-13T16:07:43;1.38;;;0.90;;
43706;SDS011;61348;53.392;-6.248;2023-03-13T16:10:20;2.05;;;1.10;;
43706;SDS011;61348;53.392;-6.248;2023-03-13T16:12:52;2.47;;;0.85;;
43706;SDS011;61348;53.392;-6.248;2023-03-13T16:15:20;1.23;;;0.60;;
43706;SDS011;61348;53.392;-6.248;2023-03-13T16:17:46;3.03;;;1.23;;
43706;SDS011;61348;53.392;-6.248;2023-03-13T16:20:14;1.90;;;0.98;;
43706;SDS011;61348;53.392;-6.248;2023-03-13T16:22:43;5.63;;;2.28;;
43706;SDS011;61348;53.392;-6.248;2023-03-13T16:25:10;1.88;;;0.40;;
43706;SDS011;61348;53.392;-6.248;2023-03-13T16:27:37;2.50;;;1.10;;
43706;SDS011;61348;53.392;-6.248;2023-03-13T16:30:06;2.30;;;0.80;;
43706;SDS011;61348;53.392;-6.248;2023-03-13T16:32:41;8.40;;;1.30;;
43706;SDS011;61348;53.392;-6.248;2023-03-13T16:35:07;3.05;;;2.58;;
43706;SDS011;61348;53.392;-6.248;2023-03-13T16:37:34;3.97;;;2.05;;
43706;SDS011;61348;53.392;-6.248;2023-03-13T16:40:01;3.25;;;1.45;;
43706;SDS011;61348;53.392;-6.248;2023-03-13T16:42:29;2.58;;;0.80;;
43706;SDS011;61348;53.392;-6.248;2023-03-13T16:44:56;2.47;;;0.70;;
43706;SDS011;61348;53.392;-6.248;2023-03-13T16:47:28;1.20;;;0.90;;
43706;SDS011;61348;53.392;-6.248;2023-03-13T16:49:56;4.82;;;3.17;;
43706;SDS011;61348;53.392;-6.248;2023-03-13T16:52:22;3.42;;;2.10;;
43706;SDS011;61348;53.392;-6.248;2023-03-13T16:54:49;3.58;;;2.67;;
43706;SDS011;61348;53.392;-6.248;2023-03-13T16:57:17;3.20;;;2.13;;
43706;SDS011;61348;53.392;-6.248;2023-03-13T16:59:47;1.48;;;0.90;;
43706;SDS011;61348;53.392;-6.248;2023-03-13T17:02:15;2.67;;;1.00;;
43706;SDS011;61348;53.392;-6.248;2023-03-13T17:04:44;3.75;;;1.20;;
43706;SDS011;61348;53.392;-6.248;2023-03-13T17:07:16;2.53;;;1.50;;
43706;SDS011;61348;53.392;-6.248;2023-03-13T17:09:45;0.95;;;0.47;;